BWI weather

Baltimore/Washington International Thurgood Marshall Airport
Baltimore, Maryland, United States

Public forecast

Using degrees Fahrenheit for public forecast. Weather courtesy of forecast.io.

METAR (pilot weather report)

Retrieved 2019/02/17 12:54 UTC (1 hour ago):

KBWI 171254Z 06006KT 10SM SCT250 M01/M07 A3014 RMK AO2 SLP208 T10111072

TAF (pilot weather forecast)

Retrieved 2019/02/17 12:22 UTC (2 hours ago):

TAF KBWI 171120Z 1712/1818 VRB03KT P6SM SCT250 FM171800 12004KT P6SM OVC060 FM180000 13005KT 4SM -RA OVC025 FM180200 14005KT 1 1/2SM -RA OVC010 FM180900 VRB03KT P6SM OVC010 FM181300 29004KT P6SM BKN035 FM181700 29012G21KT P6SM BKN040